This is the latest recevied weather packets stored in our database for station/object IZ0CGP. If no packets are shown the sender has not sent any weather packets the latest 10 day(s).
| Time | Temp. | Humidity | Pressure | Rain* | Wind** | Luminosity | Snow |
|---|---|---|---|---|---|---|---|
| 1787893398 | 21.67° C | 86% | 1017.7 hPa | 0 mm | - | - | - |
| 1787891588 | 22.22° C | 85% | 1017.7 hPa | 0 mm | - | - | - |
| 1787889755 | 22.22° C | 84% | 1017.7 hPa | 0 mm | - | - | - |
| 1787887928 | 22.22° C | 85% | 1017.7 hPa | 0 mm | - | - | - |
| 1787886114 | 22.22° C | 85% | 1017.7 hPa | 0 mm | - | - | - |
| 1787884312 | 22.78° C | 84% | 1016.7 hPa | 0 mm | - | - | - |
| 1787882510 | 22.78° C | 84% | 1016.7 hPa | 0 mm | - | - | - |
| 1787880683 | 23.33° C | 84% | 1016.7 hPa | 0 mm | - | - | - |
| 1787878881 | 23.89° C | 82% | 1017.7 hPa | 0 mm | - | - | - |
| 1787877047 | 23.89° C | 82% | 1017.7 hPa | 0 mm | - | - | - |
| 1787875247 | 25° C | 78% | 1017.7 hPa | 0 mm | - | - | - |
| 1787873445 | 25° C | 76% | 1017.7 hPa | 0 mm | - | - | - |
| 1787871642 | 25.56° C | 76% | 1017.7 hPa | 0 mm | - | - | - |
| 1787869810 | 25.56° C | 76% | 1017.7 hPa | 0 mm | - | - | - |
| 1787868003 | 26.11° C | 74% | 1017.7 hPa | 0 mm | - | - | - |
| 1787866198 | 26.11° C | 75% | 1017.7 hPa | 0 mm | - | - | - |
| 1787864396 | 26.67° C | 73% | 1018.7 hPa | 0 mm | - | - | - |
| 1787862596 | 26.67° C | 72% | 1018.7 hPa | 0 mm | - | - | - |
| 1787860792 | 26.67° C | 72% | 1017.7 hPa | 0 mm | - | - | - |
| 1787858990 | 28.33° C | 68% | 1017.7 hPa | 0 mm | - | - | - |
| 1787857172 | 29.44° C | 65% | 1017.7 hPa | 0 mm | - | - | - |
| 1787855354 | 29.44° C | 64% | 1017.7 hPa | 0 mm | - | - | - |
| 1787853547 | 30.56° C | 62% | 1017.7 hPa | 0 mm | - | - | - |
| 1787851741 | 32.22° C | 59% | 1017.7 hPa | 0 mm | - | - | - |
| 1787849926 | 32.22° C | 56% | 1017.7 hPa | 0 mm | - | - | - |
* Rain latest hour (hover to see other rain measurements)
** Current wind speed in m/s (hover to see current wind gust speed)